createdAt,value
2022-12-29T00:04:09.929Z,-0.89
2022-12-29T00:09:17.767Z,-0.91
2022-12-29T00:14:39.051Z,-0.80
2022-12-29T00:20:00.298Z,-0.82
2022-12-29T00:25:21.713Z,-0.90
2022-12-29T00:30:43.903Z,-0.89
2022-12-29T00:35:53.589Z,-1.06
2022-12-29T00:41:14.695Z,-1.21
2022-12-29T00:46:19.896Z,-1.17
2022-12-29T00:51:22.749Z,-1.16
2022-12-29T00:56:25.680Z,-1.23
2022-12-29T01:01:28.496Z,-1.22
2022-12-29T01:06:33.758Z,-1.40
2022-12-29T01:11:36.276Z,-1.67
2022-12-29T01:16:38.927Z,-1.58
2022-12-29T01:21:42.007Z,-1.70
2022-12-29T01:26:44.884Z,-2.03
2022-12-29T01:31:47.782Z,-2.27
2022-12-29T01:36:50.362Z,-2.10
2022-12-29T01:41:53.054Z,-2.12
2022-12-29T01:46:56.053Z,-2.01
2022-12-29T01:52:02.830Z,-1.91
2022-12-29T01:57:12.727Z,-1.80
2022-12-29T02:02:15.344Z,-1.95
2022-12-29T02:07:24.517Z,-2.09
2022-12-29T02:12:27.064Z,-1.72
2022-12-29T02:17:38.963Z,-2.05
2022-12-29T02:22:44.487Z,-2.08
2022-12-29T02:27:51.504Z,-2.29
2022-12-29T02:33:01.523Z,-2.58
2022-12-29T02:38:25.151Z,-2.79
2022-12-29T02:44:02.437Z,-2.84
2022-12-29T02:49:20.935Z,-2.60
2022-12-29T02:54:42.190Z,-2.50
2022-12-29T02:59:48.300Z,-2.65
2022-12-29T03:05:24.353Z,-2.22
2022-12-29T03:10:47.964Z,-2.26
2022-12-29T03:16:08.790Z,-2.24
2022-12-29T03:21:58.048Z,-2.20
2022-12-29T03:27:05.554Z,-2.33
2022-12-29T03:32:15.956Z,-2.27
2022-12-29T03:37:30.815Z,-2.22
2022-12-29T03:42:37.967Z,-2.13
2022-12-29T03:47:40.654Z,-2.16
2022-12-29T03:52:43.515Z,-1.96
2022-12-29T03:57:46.218Z,-2.13
2022-12-29T04:02:54.040Z,-2.30
2022-12-29T04:08:01.855Z,-2.43
2022-12-29T04:13:04.568Z,-2.56
2022-12-29T04:18:07.579Z,-2.50
2022-12-29T04:23:11.272Z,-2.81
2022-12-29T04:28:15.221Z,-2.90
2022-12-29T04:33:41.561Z,-2.77
2022-12-29T04:38:44.375Z,-2.63
2022-12-29T04:43:47.210Z,-2.52
2022-12-29T04:49:09.876Z,-2.65
2022-12-29T04:54:35.574Z,-2.63
2022-12-29T04:59:46.398Z,-2.56
2022-12-29T05:04:50.329Z,-2.36
2022-12-29T05:09:53.605Z,-2.43
2022-12-29T05:14:56.300Z,-2.38
2022-12-29T05:20:00.041Z,-2.43
2022-12-29T05:25:03.915Z,-2.44
2022-12-29T05:30:11.786Z,-2.43
2022-12-29T05:35:15.236Z,-2.35
2022-12-29T05:40:18.422Z,-2.37
2022-12-29T05:45:21.294Z,-2.58
2022-12-29T05:50:31.749Z,-2.39
2022-12-29T05:55:50.584Z,-2.18
2022-12-29T06:00:53.382Z,-2.29
2022-12-29T06:05:56.016Z,-2.16
2022-12-29T06:10:59.051Z,-2.12
2022-12-29T06:16:01.723Z,-2.06
2022-12-29T06:21:06.400Z,-2.12
2022-12-29T06:26:09.662Z,-2.08
2022-12-29T06:31:12.609Z,-2.29
2022-12-29T06:36:15.923Z,-1.89
2022-12-29T06:41:24.549Z,-1.75
2022-12-29T06:46:49.499Z,-1.82
2022-12-29T06:51:52.150Z,-1.86
2022-12-29T06:56:54.671Z,-2.10
2022-12-29T07:01:57.346Z,-1.71
2022-12-29T07:07:00.349Z,-1.88
2022-12-29T07:12:03.087Z,-1.54
2022-12-29T07:17:07.360Z,-1.91
2022-12-29T07:22:11.276Z,-1.53
2022-12-29T07:27:14.538Z,-1.30
2022-12-29T07:32:17.517Z,-1.53
2022-12-29T07:37:20.251Z,-1.92
2022-12-29T07:42:22.823Z,-1.36
2022-12-29T07:47:28.471Z,-1.02
2022-12-29T07:52:31.080Z,-1.62
2022-12-29T07:57:33.650Z,-1.68
2022-12-29T08:02:37.452Z,-1.86
2022-12-29T08:07:40.101Z,-1.89
2022-12-29T08:12:43.954Z,-2.14
2022-12-29T08:17:46.548Z,-2.01
2022-12-29T08:22:49.111Z,-1.44
2022-12-29T08:27:51.800Z,-1.56
2022-12-29T08:32:54.780Z,-0.97
2022-12-29T08:37:57.430Z,-1.01
2022-12-29T08:43:00.558Z,-0.78
2022-12-29T08:48:03.330Z,-1.02
2022-12-29T08:53:06.009Z,-1.21
2022-12-29T08:58:08.664Z,-1.31
2022-12-29T09:03:14.367Z,-1.00
2022-12-29T09:08:23.851Z,-0.73
2022-12-29T09:13:28.750Z,-0.34
2022-12-29T09:18:32.169Z,-0.59
2022-12-29T09:23:35.251Z,-0.40
2022-12-29T09:28:38.028Z,-0.84
2022-12-29T09:33:40.785Z,-1.24
2022-12-29T09:38:43.662Z,-1.25
2022-12-29T09:43:49.272Z,-0.98
2022-12-29T09:49:01.094Z,-0.74
2022-12-29T09:54:22.208Z,-0.34
2022-12-29T09:59:38.201Z,-0.06
2022-12-29T10:04:43.027Z,0.05
2022-12-29T10:10:02.105Z,0.18
2022-12-29T10:15:46.173Z,0.29
2022-12-29T10:21:02.545Z,0.47
2022-12-29T10:26:10.322Z,0.54
2022-12-29T10:31:22.073Z,0.57
2022-12-29T10:36:49.907Z,0.58
2022-12-29T10:42:14.933Z,0.67
2022-12-29T10:47:25.753Z,0.60
2022-12-29T10:52:30.130Z,0.74
2022-12-29T10:57:37.739Z,0.89
2022-12-29T11:03:13.863Z,0.86
2022-12-29T11:08:26.278Z,0.85
2022-12-29T11:13:36.703Z,0.83
2022-12-29T11:18:43.644Z,0.93
2022-12-29T11:23:57.568Z,1.00
2022-12-29T11:29:09.164Z,0.72
2022-12-29T11:34:31.589Z,0.63
2022-12-29T11:39:36.747Z,0.69
2022-12-29T11:44:45.028Z,0.56
2022-12-29T11:49:52.260Z,0.58
2022-12-29T11:54:57.059Z,0.49
2022-12-29T12:00:02.674Z,0.48
2022-12-29T12:05:14.916Z,0.52
2022-12-29T12:10:45.847Z,0.52
2022-12-29T12:15:57.157Z,0.52
2022-12-29T12:21:19.574Z,0.47
2022-12-29T12:26:29.451Z,0.39
2022-12-29T12:31:56.194Z,0.11
2022-12-29T12:37:21.619Z,0.44
2022-12-29T12:42:46.481Z,0.49
2022-12-29T12:48:03.958Z,0.40
2022-12-29T12:53:19.018Z,0.40
2022-12-29T12:58:33.726Z,0.30
2022-12-29T13:03:42.352Z,0.28
2022-12-29T13:08:53.793Z,0.20
2022-12-29T13:14:20.431Z,0.29
2022-12-29T13:20:01.869Z,0.20
2022-12-29T13:25:28.670Z,0.22
2022-12-29T13:30:53.914Z,0.19
2022-12-29T13:35:59.279Z,0.16
2022-12-29T13:41:10.613Z,0.15
2022-12-29T13:46:22.830Z,0.15
2022-12-29T13:51:28.716Z,0.24
2022-12-29T13:56:43.825Z,0.22
2022-12-29T14:01:59.961Z,0.11
2022-12-29T14:07:14.203Z,-0.02
2022-12-29T14:12:34.023Z,0.14
2022-12-29T14:17:37.625Z,0.24
2022-12-29T14:22:58.774Z,0.22
2022-12-29T14:28:17.375Z,0.09
2022-12-29T14:33:22.995Z,0.03
2022-12-29T14:38:28.838Z,0.18
2022-12-29T14:43:31.664Z,0.20
2022-12-29T14:48:39.314Z,0.05
2022-12-29T14:53:52.897Z,-0.03
2022-12-29T14:59:00.827Z,0.03
2022-12-29T15:04:31.417Z,0.00
2022-12-29T15:09:43.915Z,0.14
2022-12-29T15:14:54.530Z,0.27
2022-12-29T15:19:59.219Z,0.30
2022-12-29T15:25:01.927Z,0.20
2022-12-29T15:30:17.784Z,0.11
2022-12-29T15:35:34.276Z,0.13
2022-12-29T15:40:36.902Z,0.10
2022-12-29T15:45:40.004Z,0.20
2022-12-29T15:50:44.283Z,0.29
2022-12-29T15:55:48.934Z,0.28
2022-12-29T16:00:58.463Z,0.31
2022-12-29T16:06:31.990Z,0.34
2022-12-29T16:11:41.218Z,0.32
2022-12-29T16:16:45.864Z,0.20
2022-12-29T16:21:49.134Z,-0.05
2022-12-29T16:27:00.871Z,-0.18
2022-12-29T16:32:23.824Z,-0.02
2022-12-29T16:37:35.202Z,0.02
2022-12-29T16:42:51.887Z,0.02
2022-12-29T16:48:07.125Z,0.14
2022-12-29T16:53:30.973Z,0.31
2022-12-29T16:58:36.461Z,0.32
2022-12-29T17:03:43.317Z,0.34
2022-12-29T17:08:47.215Z,0.29
2022-12-29T17:13:49.775Z,0.35
2022-12-29T17:18:52.457Z,0.46
2022-12-29T17:23:55.072Z,0.50
2022-12-29T17:28:57.624Z,0.61
2022-12-29T17:34:01.267Z,0.57
2022-12-29T17:39:04.016Z,0.58
2022-12-29T17:44:07.425Z,0.45
2022-12-29T17:49:15.267Z,0.50
2022-12-29T17:54:25.043Z,0.50
2022-12-29T17:59:28.471Z,0.45
2022-12-29T18:04:31.044Z,0.57
2022-12-29T18:09:33.730Z,0.58
2022-12-29T18:14:36.344Z,0.64
2022-12-29T18:19:38.907Z,0.56
2022-12-29T18:24:41.730Z,0.55
2022-12-29T18:29:44.321Z,0.77
2022-12-29T18:34:49.002Z,0.66
2022-12-29T18:39:51.675Z,0.71
2022-12-29T18:44:55.535Z,0.71
2022-12-29T18:49:58.271Z,0.57
2022-12-29T18:55:00.888Z,0.44
2022-12-29T19:00:04.376Z,0.52
2022-12-29T19:05:31.851Z,0.56
2022-12-29T19:10:35.814Z,0.59
2022-12-29T19:15:38.400Z,0.60
2022-12-29T19:20:43.227Z,0.39
2022-12-29T19:25:46.729Z,0.41
2022-12-29T19:30:52.598Z,0.57
2022-12-29T19:36:02.559Z,0.49
2022-12-29T19:41:07.688Z,0.61
2022-12-29T19:46:11.767Z,0.54
2022-12-29T19:51:17.315Z,0.48
2022-12-29T19:56:20.392Z,0.44
2022-12-29T20:01:23.978Z,0.58
2022-12-29T20:06:26.702Z,0.52
2022-12-29T20:11:29.351Z,0.43
2022-12-29T20:16:32.062Z,0.50
2022-12-29T20:21:34.791Z,0.56
2022-12-29T20:26:37.469Z,0.42
2022-12-29T20:31:40.941Z,0.46
2022-12-29T20:36:46.237Z,0.40
2022-12-29T20:41:48.808Z,0.50
2022-12-29T20:46:51.692Z,0.64
2022-12-29T20:52:11.467Z,0.49
2022-12-29T20:57:14.079Z,0.47
2022-12-29T21:02:21.855Z,0.54
2022-12-29T21:07:24.691Z,0.45
2022-12-29T21:12:27.257Z,0.27
2022-12-29T21:17:29.881Z,0.47
2022-12-29T21:22:32.478Z,0.52
2022-12-29T21:27:35.028Z,0.47
2022-12-29T21:32:37.693Z,0.35
2022-12-29T21:37:40.239Z,0.42
2022-12-29T21:42:42.899Z,0.12
2022-12-29T21:48:04.321Z,0.36
2022-12-29T21:53:06.855Z,0.42
2022-12-29T21:58:28.156Z,0.36
2022-12-29T22:03:49.257Z,0.51
2022-12-29T22:09:10.351Z,0.52
2022-12-29T22:14:13.109Z,0.47
2022-12-29T22:19:16.391Z,0.51
2022-12-29T22:24:18.999Z,0.53
2022-12-29T22:29:21.913Z,0.56
2022-12-29T22:34:24.516Z,0.56
2022-12-29T22:39:27.070Z,0.60
2022-12-29T22:44:29.676Z,0.41
2022-12-29T22:49:32.816Z,0.49
2022-12-29T22:54:35.465Z,0.63
2022-12-29T22:59:38.047Z,0.47
2022-12-29T23:05:02.803Z,0.56
2022-12-29T23:10:05.310Z,0.50
2022-12-29T23:15:08.492Z,0.61
2022-12-29T23:20:11.465Z,0.52
2022-12-29T23:25:14.105Z,0.60
2022-12-29T23:30:16.761Z,0.43
2022-12-29T23:35:19.324Z,0.39
2022-12-29T23:40:21.946Z,0.35
2022-12-29T23:45:24.504Z,0.43
2022-12-29T23:50:27.158Z,0.51
2022-12-29T23:55:29.659Z,0.59
